Terminal Aerodrome Forecast
Issued by NWS

Home | Current Version | Previous Version | Text Only | Print | Product List | Glossary On
Versions: 1 2 3 4 5 6 7 8 9 10 11 12 13 14 15 16 17 18 19 20
000
FTUS46 KMFR 310500
TAFOTH
TAF
KOTH 310538Z 3106/0106 00000KT P6SM FEW015
     FM311000 16003KT P6SM SCT008 BKN015
     FM311100 16003KT 3SM BR OVC005
     FM311600 18003KT P6SM BKN008
     FM311800 29009KT P6SM SKC=

USA.gov is the U.S. government's official web portal to all federal, state and local government web resources and services.